Aérodrome :
LOGIN :

S'inscrire | Disclaimer

   EN    FR    IT 

 










Légende :    VFR   VFR Marginal   IFR   IFR Intensif   IFR Très Intensif
Visi : 
Plafond : 
>= 8 km
>= 3000ft
5 à 8 km
1000 à 3000 ft
1500m à 5 km
500 à 1000 ft
800 à 1500m
200 à 500 ft
< 800m
< 200 ft
Symboles :   Orages  Brouillard  Fortes neiges  Fortes précipitations  Vent > 20 kt
SIGMETs :   Divers  Orages  Givrage  Turbulence  Onde Orograph.  Cendres Volcan.







- Altitude de l'aérodrome : 333 ft


LIPL - Ghedi Brescia (Mil)

DERNIER METAR :
  • 221055Z 13003KT 5000 -RA BR FEW015 SCT030 17/15 Q1014 RMK OVC VIS MIN 5000 WIND THR31 12004KT WIND THR13 15003KT WHT

METARs EXPIRÉS :
  • 220955Z 09001KT 6000 -RA FEW040 SCT050 17/14 Q1014 RMK OVC VIS MIN 6000 WIND THR31 07002KT WIND THR13 00000KT WHT
  • 220855Z 36005KT 3500 -RA BR FEW025 SCT045 16/15 Q1013 RMK OVC VIS MIN 3500 WIND THR31 01005KT WIND THR13 36004KT YLO

TAF TAF LIPL
Valide du 22 à 12h jusqu'au 22 à 21h UTC


221100Z 2212/2221 28005KT 5000 BR SCT025 SCT050
TEMPO 2212/2216 RA FEW015 SCT020 BKN050
TEMPO 2217/2221 3000 SHRA BKN025 BKN040
Pas de NOTAMs connus pour ce terrain.
1 SIGMET publié pour la FIR Milano (LIMM) :
 
Orages noyés dans la masse
LIMM SIGMET 3 VALID 221020/221220 LIIB
LIMM MILANO FIR EMBD TS OBS S OF LINE N4337 E01058 - N4451 E01317 TOP FL350 MOV N NC=



MET'MAP, la Météo Aéronautique d'un coup d'oeil ! - Copyright ORBIFLY Décembre 2007 - Disclaimer

ORBIFLY MET'MAP TEAM :

Programmation & Développement : Alexandra Zaïnal
Conception & Développement : Baudouin d'Aumeries
Co-Programmation & Développement : Marc-Olivier Méhu
Soutien technique & logistique : Manuel Goepfert

Contact : metmap@orbifly.com




SOURCES & CREDITS :

   NOAA